Time;durP1;ratioP1;P1;durP2;ratioP2;P2;SDS_P1;SDS_P2;PMS_P1;PMS_P2;Temp;Humidity;BMP_temperature;BMP_pressure;BME280_temperature;BME280_humidity;BME280_pressure;Samples;Min_cycle;Max_cycle;Signal;HPM_P1;HPM_P2
2023/06/15 00:00:51;;;;;;;3.20;1.60;;;19.90;34.60;;;;;;2292772;55;21007;-72
2023/06/15 00:03:17;;;;;;;2.70;1.37;;;19.90;34.60;;;;;;2528674;53;20964;-75
2023/06/15 00:05:46;;;;;;;3.15;1.48;;;19.80;34.60;;;;;;2290583;54;20976;-75
2023/06/15 00:08:12;;;;;;;2.75;1.52;;;19.80;34.80;;;;;;2297028;54;20984;-74
2023/06/15 00:10:40;;;;;;;2.65;1.42;;;19.70;34.80;;;;;;2533238;53;21383;-74
2023/06/15 00:13:06;;;;;;;2.20;1.20;;;19.70;35.00;;;;;;2535287;53;21072;-75
2023/06/15 00:15:37;;;;;;;5.53;1.20;;;19.60;35.00;;;;;;2533092;54;20965;-75
2023/06/15 00:18:05;;;;;;;2.30;1.08;;;19.50;35.10;;;;;;2533895;53;21733;-75
2023/06/15 00:20:31;;;;;;;2.62;1.37;;;19.50;35.20;;;;;;2294806;55;20937;-76
2023/06/15 00:22:59;;;;;;;2.95;1.40;;;19.50;35.30;;;;;;2534165;53;20961;-74
2023/06/15 00:25:26;;;;;;;2.65;1.20;;;19.50;35.50;;;;;;2533710;53;20936;-75
2023/06/15 00:27:52;;;;;;;2.90;1.50;;;19.40;35.50;;;;;;2273331;55;21015;-75
2023/06/15 00:30:19;;;;;;;3.92;1.67;;;19.40;35.50;;;;;;2536222;54;21994;-73
2023/06/15 00:32:46;;;;;;;3.05;1.85;;;19.30;35.70;;;;;;2297605;54;20977;-75
2023/06/15 00:35:13;;;;;;;3.62;1.52;;;19.30;36.10;;;;;;2291041;54;21857;-76
2023/06/15 00:37:40;;;;;;;3.83;1.55;;;19.30;36.20;;;;;;2560243;53;21684;-71
2023/06/15 00:40:07;;;;;;;3.95;1.48;;;19.20;36.10;;;;;;2562739;53;21425;-73
2023/06/15 00:42:36;;;;;;;3.37;1.50;;;19.20;36.20;;;;;;2555499;53;20998;-71
2023/06/15 00:45:04;;;;;;;2.58;1.45;;;19.10;36.20;;;;;;2562615;53;20999;-74
2023/06/15 00:47:30;;;;;;;2.78;1.50;;;19.10;36.20;;;;;;2542462;53;21023;-72
2023/06/15 00:49:57;;;;;;;3.28;1.50;;;19.10;36.30;;;;;;2306645;54;20934;-73
2023/06/15 00:52:25;;;;;;;2.78;1.33;;;19.10;36.40;;;;;;2532359;53;20986;-72
2023/06/15 00:54:52;;;;;;;2.60;1.50;;;19.00;36.40;;;;;;2564614;53;21487;-74
2023/06/15 00:57:24;;;;;;;4.28;1.50;;;19.00;36.50;;;;;;2312889;55;21637;-71
2023/06/15 00:59:50;;;;;;;2.90;1.67;;;18.90;36.50;;;;;;2316531;54;21083;-73
2023/06/15 01:02:18;;;;;;;3.25;1.33;;;18.90;36.60;;;;;;2294752;54;20970;-74
2023/06/15 01:04:50;;;;;;;2.80;1.58;;;18.90;37.30;;;;;;2526710;53;21412;-71
2023/06/15 01:07:16;;;;;;;2.90;1.60;;;18.80;36.70;;;;;;2292615;54;21011;-74
2023/06/15 01:09:45;;;;;;;2.72;1.40;;;18.80;36.70;;;;;;2314174;54;20931;-75
2023/06/15 01:12:14;;;;;;;2.80;1.42;;;18.70;36.70;;;;;;2526243;53;21613;-73
2023/06/15 01:14:40;;;;;;;3.65;2.00;;;18.70;36.80;;;;;;2297374;54;21489;-70
2023/06/15 01:17:23;;;;;;;3.30;1.60;;;18.70;37.10;;;;;;2313335;55;20946;-74
2023/06/15 01:20:16;;;;;;;3.03;1.50;;;18.60;37.40;;;;;;2560045;53;21778;-71
2023/06/15 01:22:45;;;;;;;;;;;18.60;37.20;;;;;;2564737;53;21037;-72
2023/06/15 01:26:05;;;;;;;3.10;1.42;;;18.60;37.50;;;;;;2299014;54;21110;-72
2023/06/15 01:28:33;;;;;;;3.17;1.58;;;18.60;37.80;;;;;;2560720;53;20959;-72
2023/06/15 01:31:01;;;;;;;3.22;1.70;;;18.50;37.10;;;;;;2562791;53;21030;-74
2023/06/15 01:33:31;;;;;;;2.95;1.75;;;18.50;37.30;;;;;;2323353;54;20950;-72
2023/06/15 01:35:57;;;;;;;3.30;2.00;;;18.40;37.50;;;;;;2273589;55;20930;-74
2023/06/15 01:38:32;;;;;;;2.87;1.55;;;18.40;37.70;;;;;;2306824;55;20933;-71
2023/06/15 01:40:59;;;;;;;3.62;1.80;;;18.30;37.90;;;;;;2297824;55;21617;-72
2023/06/15 01:43:29;;;;;;;2.83;1.65;;;18.30;37.80;;;;;;2324257;55;20930;-72
2023/06/15 01:45:56;;;;;;;3.87;1.60;;;18.30;37.80;;;;;;2324516;55;21033;-72
2023/06/15 01:48:22;;;;;;;3.08;1.58;;;18.20;37.70;;;;;;2568633;53;20954;-74
2023/06/15 01:50:49;;;;;;;2.92;1.62;;;18.20;37.80;;;;;;2546097;53;21812;-72
2023/06/15 01:53:15;;;;;;;2.75;1.40;;;18.30;37.90;;;;;;2557626;53;20997;-74
2023/06/15 01:55:42;;;;;;;3.37;1.65;;;18.10;37.80;;;;;;2311029;54;21417;-73
2023/06/15 01:58:11;;;;;;;3.12;1.70;;;18.10;37.90;;;;;;2315279;54;20966;-71
2023/06/15 02:00:37;;;;;;;4.40;1.55;;;18.10;38.00;;;;;;2570447;53;20971;-73
2023/06/15 02:03:03;;;;;;;4.87;1.70;;;18.10;38.00;;;;;;2571870;53;20907;-75
2023/06/15 02:05:30;;;;;;;4.05;1.65;;;18.00;38.00;;;;;;2328024;55;20941;-73
2023/06/15 02:07:56;;;;;;;3.53;1.60;;;18.00;38.10;;;;;;2304552;54;20945;-72
2023/06/15 02:10:23;;;;;;;2.75;1.30;;;18.00;38.30;;;;;;2531411;53;22094;-73
2023/06/15 02:12:49;;;;;;;3.58;1.33;;;17.90;38.20;;;;;;2565369;53;21066;-72
2023/06/15 02:15:17;;;;;;;2.95;1.67;;;17.90;38.20;;;;;;2568406;53;20983;-73
2023/06/15 02:17:44;;;;;;;4.47;2.08;;;17.80;38.20;;;;;;2547949;53;21009;-72
2023/06/15 02:20:12;;;;;;;3.08;1.67;;;17.80;38.30;;;;;;2554747;53;21435;-74
2023/06/15 02:22:40;;;;;;;2.90;1.52;;;17.80;38.30;;;;;;2567121;53;20903;-73
2023/06/15 02:25:08;;;;;;;2.75;1.45;;;17.70;38.30;;;;;;2570502;53;21641;-75
2023/06/15 02:27:35;;;;;;;2.80;1.58;;;17.70;38.40;;;;;;2569587;53;21006;-75
2023/06/15 02:30:03;;;;;;;2.87;1.55;;;17.70;38.40;;;;;;2324346;55;21797;-72
2023/06/15 02:32:34;;;;;;;3.37;1.60;;;17.70;38.50;;;;;;2301188;55;21657;-70
2023/06/15 02:35:05;;;;;;;3.25;1.60;;;17.70;38.70;;;;;;2567525;53;21963;-73
2023/06/15 02:37:32;;;;;;;3.30;1.40;;;17.60;38.60;;;;;;2538766;54;21597;-70
2023/06/15 02:39:58;;;;;;;2.83;1.73;;;17.60;38.60;;;;;;2277841;56;21056;-76
2023/06/15 02:42:24;;;;;;;3.15;1.90;;;17.50;38.60;;;;;;2557548;53;21014;-74
2023/06/15 02:44:50;;;;;;;4.20;1.73;;;17.50;38.80;;;;;;2323602;55;21101;-75
2023/06/15 02:47:17;;;;;;;3.00;1.45;;;17.50;38.90;;;;;;2324485;55;21040;-75
2023/06/15 02:49:46;;;;;;;2.67;1.70;;;17.50;39.00;;;;;;2566183;53;21010;-75
2023/06/15 02:52:12;;;;;;;2.90;1.70;;;17.40;39.00;;;;;;2548603;53;20943;-75
2023/06/15 02:54:39;;;;;;;2.80;1.60;;;17.40;38.90;;;;;;2309994;54;21706;-73
2023/06/15 02:57:09;;;;;;;3.40;1.67;;;17.40;39.00;;;;;;2321906;55;21034;-73
2023/06/15 02:59:35;;;;;;;3.10;1.60;;;17.40;39.20;;;;;;2323769;55;20970;-72
2023/06/15 03:02:05;;;;;;;3.20;1.77;;;17.40;39.20;;;;;;2567769;53;21720;-74
2023/06/15 03:04:32;;;;;;;3.05;1.65;;;17.30;39.30;;;;;;2536758;54;20921;-73
2023/06/15 03:07:03;;;;;;;3.28;1.80;;;17.30;39.50;;;;;;2538906;53;21637;-72
2023/06/15 03:09:30;;;;;;;2.75;1.42;;;17.30;39.80;;;;;;2539081;53;21049;-75
2023/06/15 03:11:58;;;;;;;2.72;1.33;;;17.30;39.50;;;;;;2299257;55;20907;-73
2023/06/15 03:14:29;;;;;;;4.13;1.57;;;17.20;39.40;;;;;;2301798;54;20929;-72
2023/06/15 03:16:56;;;;;;;3.20;1.60;;;17.20;39.40;;;;;;2539926;54;21017;-74
2023/06/15 03:19:23;;;;;;;3.28;1.73;;;17.20;39.50;;;;;;2539064;54;21037;-74
2023/06/15 03:21:50;;;;;;;3.17;1.55;;;17.10;39.40;;;;;;2559489;53;20936;-75
2023/06/15 03:24:18;;;;;;;3.47;1.87;;;17.10;39.50;;;;;;2541876;54;20937;-75
2023/06/15 03:26:44;;;;;;;3.22;1.90;;;17.10;39.50;;;;;;2303953;54;20968;-74
2023/06/15 03:29:11;;;;;;;2.80;1.60;;;17.00;39.60;;;;;;2538497;54;21818;-74
2023/06/15 03:31:40;;;;;;;2.90;1.67;;;17.00;39.60;;;;;;2301317;54;21830;-75
2023/06/15 03:34:07;;;;;;;2.92;1.62;;;17.00;39.70;;;;;;2539898;54;20941;-75
2023/06/15 03:36:36;;;;;;;3.17;1.70;;;16.90;39.70;;;;;;2539514;54;20981;-74
2023/06/15 03:39:03;;;;;;;3.15;1.60;;;16.90;39.80;;;;;;2559426;53;20991;-75
2023/06/15 03:41:36;;;;;;;4.37;1.92;;;16.90;39.90;;;;;;2573391;53;20960;-73
2023/06/15 03:44:03;;;;;;;2.83;1.65;;;16.90;40.10;;;;;;2329326;55;21511;-74
2023/06/15 03:46:30;;;;;;;3.12;1.52;;;16.80;40.00;;;;;;2571830;53;20915;-74
2023/06/15 03:48:56;;;;;;;3.58;1.75;;;16.80;40.00;;;;;;2570106;53;21023;-74
2023/06/15 03:51:26;;;;;;;3.42;2.00;;;16.80;40.10;;;;;;2546984;53;21613;-74
2023/06/15 03:53:53;;;;;;;3.87;2.03;;;16.80;40.20;;;;;;2513360;54;20997;-75
2023/06/15 03:56:22;;;;;;;2.87;1.70;;;16.80;40.30;;;;;;2523026;54;20986;-72
2023/06/15 03:58:49;;;;;;;2.80;1.60;;;16.80;40.50;;;;;;2293651;54;21830;-72
2023/06/15 04:01:16;;;;;;;3.70;1.92;;;16.80;40.50;;;;;;2510144;53;20961;-74
2023/06/15 04:03:43;;;;;;;2.58;1.35;;;16.70;40.50;;;;;;2552314;53;21024;-75
2023/06/15 04:06:09;;;;;;;3.75;2.30;;;16.70;40.70;;;;;;2526262;54;21616;-72
2023/06/15 04:08:36;;;;;;;3.70;2.05;;;16.70;41.00;;;;;;2537216;53;20969;-75
2023/06/15 04:11:02;;;;;;;3.80;2.00;;;16.80;41.30;;;;;;2531214;53;21912;-75
2023/06/15 04:13:35;;;;;;;3.12;1.95;;;16.80;41.30;;;;;;2522948;54;20881;-73
2023/06/15 04:16:02;;;;;;;4.85;2.00;;;16.80;41.60;;;;;;2527867;53;21822;-74
2023/06/15 04:18:33;;;;;;;3.37;1.75;;;16.80;41.40;;;;;;2509211;53;21406;-73
2023/06/15 04:21:03;;;;;;;3.53;1.80;;;16.80;41.60;;;;;;2513359;53;21471;-72
2023/06/15 04:23:56;;;;;;;3.45;1.80;;;16.80;41.60;;;;;;2517967;53;21270;-73
2023/06/15 04:26:33;;;;;;;4.30;2.05;;;16.90;41.90;;;;;;2500820;53;21025;-72
2023/06/15 04:29:04;;;;;;;3.05;1.75;;;16.90;41.50;;;;;;2280151;54;21330;-72
2023/06/15 04:31:39;;;;;;;4.00;2.00;;;16.90;41.80;;;;;;2511887;53;21078;-74
2023/06/15 04:34:17;;;;;;;3.05;1.67;;;17.00;41.90;;;;;;2476450;53;21593;-73
2023/06/15 04:36:54;;;;;;;3.33;1.87;;;17.00;41.90;;;;;;2231053;55;21767;-73
2023/06/15 04:39:47;;;;;;;3.25;1.67;;;17.10;42.00;;;;;;2457245;54;21011;-74
2023/06/15 04:42:18;;;;;;;3.70;1.98;;;17.10;42.50;;;;;;2486682;53;20920;-72
2023/06/15 04:44:58;;;;;;;3.33;1.95;;;17.10;42.20;;;;;;2477861;53;21492;-71
2023/06/15 04:47:38;;;;;;;3.03;1.83;;;17.20;42.40;;;;;;2510218;52;22077;-73
2023/06/15 04:50:29;;;;;;;3.35;1.83;;;17.20;42.50;;;;;;2507488;53;20961;-72
2023/06/15 04:53:06;;;;;;;3.30;1.77;;;17.30;42.70;;;;;;2503499;53;21512;-71
2023/06/15 04:55:36;;;;;;;3.55;1.90;;;17.30;42.50;;;;;;2487677;52;21932;-72
2023/06/15 04:58:07;;;;;;;2.70;1.67;;;17.40;42.60;;;;;;2483206;53;22165;-72
2023/06/15 05:00:46;;;;;;;4.40;2.08;;;17.40;42.70;;;;;;2496546;53;22047;-72
2023/06/15 05:03:22;;;;;;;3.33;1.92;;;17.50;43.10;;;;;;2250838;55;22385;-72
2023/06/15 05:05:56;;;;;;;3.80;2.10;;;17.50;42.80;;;;;;2241558;54;21939;-72
2023/06/15 05:08:26;;;;;;;6.07;2.00;;;17.60;42.90;;;;;;2498184;53;22326;-73
2023/06/15 05:10:58;;;;;;;3.25;1.85;;;17.60;42.80;;;;;;2470670;53;22413;-73
2023/06/15 05:13:28;;;;;;;;;;;17.70;42.90;;;;;;2490784;52;21798;-72
2023/06/15 05:15:56;;;;;;;4.70;1.62;;;17.70;42.90;;;;;;2507052;53;20805;-72
2023/06/15 05:18:35;;;;;;;3.12;1.77;;;17.80;42.50;;;;;;2515341;53;20968;-73
2023/06/15 05:21:05;;;;;;;3.25;1.73;;;17.80;43.00;;;;;;2279374;55;21505;-72
2023/06/15 05:23:34;;;;;;;4.05;1.87;;;17.90;42.90;;;;;;2287345;55;21740;-72
2023/06/15 05:26:02;;;;;;;3.00;1.70;;;17.90;42.80;;;;;;2554085;53;21146;-74
2023/06/15 05:28:29;;;;;;;4.12;2.20;;;18.00;42.80;;;;;;2319705;54;20976;-76
2023/06/15 05:30:55;;;;;;;4.47;2.00;;;18.10;43.00;;;;;;2323286;55;20972;-74
2023/06/15 05:33:23;;;;;;;3.60;2.03;;;18.10;43.00;;;;;;2569761;52;20981;-74
2023/06/15 05:35:49;;;;;;;4.28;2.30;;;18.20;43.00;;;;;;2557628;52;21043;-75
2023/06/15 05:38:26;;;;;;;4.82;2.58;;;18.20;43.00;;;;;;2310668;55;21001;-75
2023/06/15 05:40:52;;;;;;;3.15;1.83;;;18.30;43.10;;;;;;2543140;53;21019;-72
2023/06/15 05:43:19;;;;;;;3.20;2.00;;;18.30;43.10;;;;;;2304497;54;21023;-75
2023/06/15 05:45:48;;;;;;;3.22;2.12;;;18.40;43.10;;;;;;2291886;54;21055;-75
2023/06/15 05:48:16;;;;;;;4.25;2.60;;;18.40;43.10;;;;;;2306752;54;21020;-74
2023/06/15 05:50:44;;;;;;;7.30;2.50;;;18.50;43.30;;;;;;2542797;53;20944;-72
2023/06/15 05:53:13;;;;;;;4.30;2.42;;;18.50;43.40;;;;;;2297420;54;20945;-74
2023/06/15 05:55:39;;;;;;;3.95;2.58;;;18.60;43.40;;;;;;2553286;53;21051;-73
2023/06/15 05:58:05;;;;;;;4.43;2.47;;;18.60;43.40;;;;;;2536606;53;21012;-74
2023/06/15 06:00:32;;;;;;;3.85;2.47;;;18.70;43.50;;;;;;2561737;53;21493;-73
2023/06/15 06:03:02;;;;;;;4.53;2.60;;;18.70;43.50;;;;;;2318767;53;20931;-75
2023/06/15 06:05:28;;;;;;;3.70;2.55;;;18.80;43.60;;;;;;2318807;54;20945;-75
2023/06/15 06:07:55;;;;;;;4.28;2.50;;;18.80;43.60;;;;;;2292116;54;21807;-75
2023/06/15 06:10:23;;;;;;;3.97;2.70;;;18.90;43.70;;;;;;2540899;53;21717;-73
2023/06/15 06:12:50;;;;;;;4.60;2.90;;;19.00;43.90;;;;;;2561161;53;20952;-73
2023/06/15 06:15:16;;;;;;;6.78;2.97;;;19.00;43.90;;;;;;2563210;53;20956;-74
2023/06/15 06:17:45;;;;;;;3.90;2.60;;;19.10;43.90;;;;;;2561108;53;21026;-72
2023/06/15 06:20:26;;;;;;;5.93;2.70;;;19.20;44.00;;;;;;2321399;54;22089;-73
2023/06/15 06:22:58;;;;;;;4.50;2.90;;;19.20;44.00;;;;;;2306181;54;21505;-73
2023/06/15 06:25:28;;;;;;;4.90;3.00;;;19.30;44.30;;;;;;2292545;54;21871;-74
2023/06/15 06:27:56;;;;;;;5.25;3.17;;;19.40;44.30;;;;;;2491840;53;21020;-72
2023/06/15 06:30:27;;;;;;;4.00;2.47;;;19.40;44.20;;;;;;2534518;53;21071;-74
2023/06/15 06:32:59;;;;;;;3.65;2.37;;;19.50;44.30;;;;;;2530205;53;22166;-73
2023/06/15 06:35:29;;;;;;;4.75;2.58;;;19.60;44.30;;;;;;2499866;53;21620;-75
2023/06/15 06:38:00;;;;;;;3.80;2.40;;;19.60;44.00;;;;;;2532265;53;21005;-74
2023/06/15 06:40:29;;;;;;;4.12;2.20;;;19.70;44.10;;;;;;2531235;53;20988;-72
2023/06/15 06:42:57;;;;;;;4.28;2.70;;;19.80;44.10;;;;;;2531517;53;20977;-72
2023/06/15 06:45:29;;;;;;;4.07;2.60;;;19.90;44.20;;;;;;2533335;53;21548;-70
2023/06/15 06:48:08;;;;;;;4.47;2.53;;;19.90;44.20;;;;;;2528872;53;21025;-73
2023/06/15 06:50:49;;;;;;;3.87;2.70;;;20.00;44.30;;;;;;2484619;53;20968;-73
2023/06/15 06:53:18;;;;;;;3.85;2.50;;;20.10;44.40;;;;;;2251349;55;21109;-72
2023/06/15 06:55:51;;;;;;;6.20;3.60;;;20.30;44.30;;;;;;2265639;54;21583;-76
2023/06/15 06:58:31;;;;;;;6.95;2.85;;;20.20;44.50;;;;;;2508612;53;20959;-74
2023/06/15 07:01:00;;;;;;;4.75;2.80;;;20.30;44.50;;;;;;2256803;55;21989;-76
2023/06/15 07:03:27;;;;;;;3.70;2.30;;;20.40;44.30;;;;;;2496867;53;22162;-73
2023/06/15 07:05:59;;;;;;;3.78;2.50;;;20.50;44.40;;;;;;2476184;54;21089;-74
2023/06/15 07:08:25;;;;;;;;;;;20.60;44.50;;;;;;2489984;53;21004;-74
2023/06/15 07:10:55;;;;;;;4.53;2.47;;;20.70;44.50;;;;;;2495722;53;20155;-75
2023/06/15 07:13:31;;;;;;;5.25;3.05;;;20.70;44.00;;;;;;2495796;53;21501;-73
2023/06/15 07:16:06;;;;;;;6.05;2.62;;;20.80;44.20;;;;;;2498533;53;21003;-75
2023/06/15 07:18:34;;;;;;;4.85;2.25;;;20.90;44.00;;;;;;2505592;53;21574;-74
2023/06/15 07:21:06;;;;;;;4.22;2.67;;;20.90;44.00;;;;;;2515336;53;21027;-77
2023/06/15 07:23:36;;;;;;;5.72;2.72;;;21.00;44.10;;;;;;2500385;53;21043;-74
2023/06/15 07:26:16;;;;;;;4.33;2.80;;;21.10;44.10;;;;;;2271322;55;20987;-73
2023/06/15 07:28:47;;;;;;;5.47;2.60;;;21.20;44.00;;;;;;2511123;53;21458;-75
2023/06/15 07:31:15;;;;;;;5.57;2.87;;;21.30;44.00;;;;;;2491095;53;21742;-75
2023/06/15 07:33:47;;;;;;;3.97;2.58;;;21.40;43.90;;;;;;2485222;53;20976;-76
2023/06/15 07:36:19;;;;;;;5.67;2.70;;;21.50;44.00;;;;;;2481534;53;21054;-75
2023/06/15 07:38:48;;;;;;;4.53;2.65;;;21.50;44.00;;;;;;2247904;55;21817;-73
2023/06/15 07:41:20;;;;;;;4.62;2.72;;;21.60;43.90;;;;;;2435439;54;21846;-73
2023/06/15 07:43:50;;;;;;;3.40;2.35;;;21.70;43.80;;;;;;2235420;55;21844;-74
2023/06/15 07:46:21;;;;;;;3.42;2.40;;;21.80;43.70;;;;;;2441372;54;20899;-73
2023/06/15 07:48:50;;;;;;;4.03;2.40;;;21.90;43.60;;;;;;2452711;53;21704;-74
2023/06/15 07:51:29;;;;;;;4.00;2.42;;;22.00;43.50;;;;;;2207515;55;21547;-75
2023/06/15 07:54:08;;;;;;;5.03;2.80;;;22.10;43.50;;;;;;2219027;56;20984;-75
2023/06/15 07:56:44;;;;;;;4.28;2.37;;;22.20;43.30;;;;;;2483302;54;20973;-74
2023/06/15 07:59:27;;;;;;;4.32;2.50;;;22.20;43.30;;;;;;2488571;54;20944;-73
2023/06/15 08:01:58;;;;;;;3.30;2.03;;;22.30;43.10;;;;;;2490727;54;21670;-72
2023/06/15 08:04:29;;;;;;;4.72;2.35;;;22.40;43.20;;;;;;2500013;54;22211;-72
2023/06/15 08:06:56;;;;;;;4.68;2.22;;;22.40;43.20;;;;;;2271837;54;20952;-73
2023/06/15 08:09:25;;;;;;;3.87;2.42;;;22.50;43.20;;;;;;2523180;53;20993;-77
2023/06/15 08:11:52;;;;;;;4.55;2.30;;;22.50;43.00;;;;;;2284963;55;20905;-76
2023/06/15 08:14:20;;;;;;;4.47;2.53;;;22.60;43.10;;;;;;2300389;55;21744;-77
2023/06/15 08:16:47;;;;;;;3.92;2.53;;;22.60;43.20;;;;;;2470798;53;137281;-91
2023/06/15 08:19:15;;;;;;;3.95;2.30;;;22.70;43.20;;;;;;2516809;53;20928;-92
2023/06/15 08:24:16;;;;;;;3.83;2.37;;;22.90;43.10;;;;;;2474050;54;20956;-91
2023/06/15 08:32:01;;;;;;;;;;;23.10;42.90;;;;;;2343742;54;133781;-91
2023/06/15 08:47:18;;;;;;;3.70;1.60;;;23.70;42.70;;;;;;2277333;54;20140;-91
2023/06/15 08:52:20;;;;;;;6.28;2.05;;;23.80;42.50;;;;;;2406674;56;21524;-92
2023/06/15 08:54:47;;;;;;;3.85;2.40;;;23.90;42.40;;;;;;2452125;53;20985;-89
2023/06/15 08:57:15;;;;;;;3.50;1.87;;;24.10;42.20;;;;;;2470471;54;20907;-90
2023/06/15 08:59:42;;;;;;;4.72;2.03;;;24.10;42.20;;;;;;2463417;53;20931;-89
2023/06/15 09:02:13;;;;;;;3.83;2.00;;;24.20;42.30;;;;;;2381561;54;20960;-91
2023/06/15 09:12:08;;;;;;;3.15;1.80;;;24.50;42.20;;;;;;2510341;53;21719;-90
2023/06/15 09:14:40;;;;;;;4.80;1.83;;;24.60;42.10;;;;;;2539254;53;20969;-87
2023/06/15 09:17:15;;;;;;;3.72;1.90;;;24.70;41.90;;;;;;2548152;54;21396;-91
2023/06/15 09:19:42;;;;;;;3.40;2.10;;;24.80;42.00;;;;;;2497089;53;20939;-91
2023/06/15 09:22:12;;;;;;;4.55;1.95;;;24.90;41.80;;;;;;2456368;54;20951;-90
2023/06/15 09:24:45;;;;;;;4.15;2.58;;;25.00;41.60;;;;;;2455890;54;20960;-89
2023/06/15 09:27:15;;;;;;;6.20;2.22;;;25.10;41.90;;;;;;2391387;52;21062;-90
2023/06/15 09:30:01;;;;;;;2.70;1.62;;;25.20;41.80;;;;;;2579337;52;21044;-89
2023/06/15 09:32:32;;;;;;;3.67;2.08;;;25.30;41.40;;;;;;2580313;52;21234;-92
2023/06/15 09:37:31;;;;;;;5.53;2.20;;;25.50;42.00;;;;;;2454913;54;21508;-91
2023/06/15 09:39:57;;;;;;;3.72;2.20;;;25.60;41.30;;;;;;2463275;55;20944;-90
2023/06/15 09:42:27;;;;;;;3.75;1.98;;;25.70;41.10;;;;;;2257555;55;20940;-88
2023/06/15 09:45:03;;;;;;;3.70;1.97;;;25.80;41.10;;;;;;2460400;54;20948;-89
2023/06/15 09:47:30;;;;;;;3.47;2.00;;;25.90;40.90;;;;;;2469782;54;20923;-91
2023/06/15 09:49:57;;;;;;;3.50;1.80;;;26.00;40.80;;;;;;2458494;54;21052;-90
2023/06/15 09:52:24;;;;;;;5.75;2.28;;;26.00;40.70;;;;;;2469151;54;20980;-92
2023/06/15 09:54:52;;;;;;;3.72;2.15;;;26.10;40.60;;;;;;2497508;55;20967;-89
2023/06/15 09:57:23;;;;;;;3.15;1.90;;;26.10;40.30;;;;;;2462317;54;21562;-90
2023/06/15 09:59:52;;;;;;;4.20;2.00;;;26.30;40.10;;;;;;2434785;55;21044;-89
2023/06/15 10:02:21;;;;;;;3.67;2.10;;;26.40;40.00;;;;;;2466111;54;20824;-88
2023/06/15 10:04:57;;;;;;;3.30;1.90;;;26.50;39.40;;;;;;2440020;55;21051;-89
2023/06/15 10:07:24;;;;;;;3.10;1.92;;;26.60;39.80;;;;;;2489453;54;20972;-91
2023/06/15 10:09:51;;;;;;;5.47;2.08;;;26.60;39.40;;;;;;2506897;54;22104;-88
2023/06/15 10:12:20;;;;;;;3.78;2.40;;;26.70;39.60;;;;;;2498458;54;20910;-88
2023/06/15 10:15:03;;;;;;;3.22;2.12;;;26.80;39.40;;;;;;2494801;54;20876;-88
2023/06/15 10:17:33;;;;;;;3.30;2.20;;;26.90;39.10;;;;;;2495395;54;20915;-88
2023/06/15 10:20:08;;;;;;;3.83;2.28;;;27.00;39.20;;;;;;2492999;55;20934;-86
2023/06/15 10:22:46;;;;;;;4.55;2.30;;;27.10;39.00;;;;;;2494158;55;20962;-90
2023/06/15 10:25:13;;;;;;;3.00;1.73;;;27.10;39.00;;;;;;2493778;55;21006;-89
2023/06/15 10:27:39;;;;;;;3.47;2.00;;;27.20;39.00;;;;;;2265200;56;20895;-89
2023/06/15 10:30:36;;;;;;;3.65;2.22;;;27.30;39.50;;;;;;2494663;55;20932;-88
2023/06/15 10:34:46;;;;;;;2.97;1.73;;;27.40;38.40;;;;;;2266610;56;21575;-88
2023/06/15 10:37:37;;;;;;;3.80;1.70;;;27.40;38.20;;;;;;2268465;56;20934;-89
2023/06/15 10:40:24;;;;;;;3.12;1.83;;;27.60;38.00;;;;;;2466633;56;20999;-89
2023/06/15 10:42:58;;;;;;;3.22;2.00;;;27.70;38.60;;;;;;2464545;56;21118;-90
2023/06/15 10:45:32;;;;;;;3.58;2.17;;;27.70;38.20;;;;;;2457339;55;20995;-87
2023/06/15 10:48:02;;;;;;;3.53;1.73;;;27.80;38.10;;;;;;2471026;55;21776;-88
2023/06/15 10:50:48;;;;;;;3.60;2.10;;;27.90;38.00;;;;;;2480456;55;20926;-86
2023/06/15 10:58:21;;;;;;;2.90;1.83;;;28.10;37.40;;;;;;2478638;53;21172;-91
2023/06/15 11:01:15;;;;;;;5.80;2.05;;;28.30;37.00;;;;;;2578282;53;20963;-88
2023/06/15 11:03:42;;;;;;;3.08;1.87;;;28.30;36.70;;;;;;2577128;53;21421;-87
2023/06/15 11:06:19;;;;;;;3.47;1.65;;;28.30;36.90;;;;;;2580753;52;20896;-90
2023/06/15 11:08:52;;;;;;;3.10;1.95;;;28.40;36.70;;;;;;2549499;52;21004;-89
2023/06/15 11:11:19;;;;;;;4.60;1.83;;;28.50;37.10;;;;;;2564044;53;21058;-90
2023/06/15 11:13:57;;;;;;;4.75;1.98;;;28.60;37.10;;;;;;2423151;52;21110;-89
2023/06/15 11:16:26;;;;;;;4.18;2.17;;;28.60;36.20;;;;;;2536457;54;20977;-90
2023/06/15 11:20:27;;;;;;;7.57;2.33;;;28.70;36.10;;;;;;2536947;53;20940;-89
2023/06/15 11:22:53;;;;;;;4.18;2.05;;;28.80;35.60;;;;;;2563196;53;20923;-90
2023/06/15 11:25:22;;;;;;;2.83;1.73;;;28.90;35.70;;;;;;2564370;53;21733;-90
2023/06/15 11:27:48;;;;;;;3.15;1.42;;;28.90;35.70;;;;;;2563299;53;20987;-90
2023/06/15 11:30:15;;;;;;;3.12;1.92;;;28.90;35.40;;;;;;2546366;52;20927;-86
2023/06/15 11:32:43;;;;;;;4.10;2.05;;;29.00;35.40;;;;;;2544547;53;20924;-88
2023/06/15 11:35:13;;;;;;;4.32;2.12;;;29.10;35.10;;;;;;2547262;53;20916;-90
2023/06/15 11:37:44;;;;;;;4.30;2.05;;;29.10;34.40;;;;;;2462180;52;141810;-76
2023/06/15 11:40:12;;;;;;;3.50;1.90;;;29.10;34.80;;;;;;2451212;55;20981;-67
2023/06/15 11:42:39;;;;;;;3.72;2.03;;;29.20;35.10;;;;;;2454117;55;21022;-74
2023/06/15 11:45:06;;;;;;;3.00;1.90;;;29.30;34.90;;;;;;2462980;55;21046;-74
2023/06/15 11:47:33;;;;;;;2.95;2.00;;;29.30;34.50;;;;;;2237942;56;20986;-73
2023/06/15 11:50:01;;;;;;;3.00;1.62;;;29.40;34.30;;;;;;2444301;55;21033;-73
2023/06/15 11:52:45;;;;;;;3.05;1.92;;;29.40;34.40;;;;;;2440436;55;20997;-73
2023/06/15 11:55:16;;;;;;;3.35;1.85;;;29.50;34.20;;;;;;2238468;56;21070;-74
2023/06/15 11:57:45;;;;;;;2.95;1.70;;;29.60;34.20;;;;;;2459412;55;21022;-72
2023/06/15 12:00:14;;;;;;;3.17;1.37;;;29.60;34.20;;;;;;2460764;55;21022;-72
2023/06/15 12:02:43;;;;;;;2.80;1.80;;;29.70;34.00;;;;;;2461166;55;21002;-73
2023/06/15 12:05:13;;;;;;;3.47;1.85;;;29.70;33.70;;;;;;2461985;55;20970;-72
2023/06/15 12:07:39;;;;;;;3.97;1.87;;;29.80;33.40;;;;;;2461312;55;21022;-72
2023/06/15 12:10:07;;;;;;;3.47;1.90;;;29.80;33.00;;;;;;2238125;56;20970;-73
2023/06/15 12:12:34;;;;;;;3.47;2.00;;;29.90;32.80;;;;;;2461500;55;21046;-73
2023/06/15 12:15:02;;;;;;;3.47;1.98;;;29.90;32.80;;;;;;2462474;55;20954;-75
2023/06/15 12:17:38;;;;;;;4.18;1.77;;;29.90;32.90;;;;;;2224159;56;20985;-73
2023/06/15 12:20:09;;;;;;;2.95;1.65;;;29.90;32.50;;;;;;2219106;56;21114;-72
2023/06/15 12:22:36;;;;;;;4.30;2.30;;;30.00;32.70;;;;;;2216100;57;21016;-72
2023/06/15 12:25:04;;;;;;;2.70;1.55;;;30.00;32.80;;;;;;2430741;56;21370;-68
2023/06/15 12:27:31;;;;;;;2.83;1.58;;;30.00;32.70;;;;;;2418156;56;20996;-72
2023/06/15 12:30:13;;;;;;;2.90;1.80;;;30.10;32.30;;;;;;2223893;57;20967;-73
2023/06/15 12:32:43;;;;;;;3.10;1.98;;;30.20;31.30;;;;;;2458649;55;20972;-72
2023/06/15 12:35:32;;;;;;;2.70;1.60;;;30.20;31.40;;;;;;2212210;57;20963;-74
2023/06/15 12:37:59;;;;;;;2.62;1.50;;;30.20;31.00;;;;;;2224783;56;20998;-74
2023/06/15 12:40:28;;;;;;;3.50;1.90;;;30.20;31.10;;;;;;2226190;56;21011;-75
2023/06/15 12:43:01;;;;;;;4.43;1.60;;;30.20;31.00;;;;;;2226377;56;20979;-74
2023/06/15 12:45:28;;;;;;;3.65;1.55;;;30.20;30.70;;;;;;2445358;55;20984;-74
2023/06/15 12:47:54;;;;;;;2.58;1.40;;;30.20;31.00;;;;;;2460087;55;21413;-74
2023/06/15 12:50:23;;;;;;;3.25;1.73;;;30.20;31.10;;;;;;2260853;56;21093;-74
2023/06/15 12:52:55;;;;;;;7.07;1.77;;;30.30;30.70;;;;;;2485633;55;21049;-74
2023/06/15 12:55:21;;;;;;;2.90;1.60;;;30.30;30.70;;;;;;2477122;55;20956;-75
2023/06/15 12:57:49;;;;;;;3.20;1.75;;;30.30;30.70;;;;;;2479052;55;21041;-74
2023/06/15 13:00:19;;;;;;;3.25;1.67;;;30.40;31.00;;;;;;2259682;56;21004;-75
2023/06/15 13:02:48;;;;;;;3.53;1.95;;;30.40;31.00;;;;;;2489504;55;20985;-76
2023/06/15 13:05:15;;;;;;;3.20;1.80;;;30.50;30.90;;;;;;2489872;55;20969;-74
2023/06/15 13:07:41;;;;;;;3.65;2.08;;;30.60;31.00;;;;;;2489203;55;20985;-77
2023/06/15 13:10:09;;;;;;;2.58;1.42;;;30.60;31.00;;;;;;2486738;55;20984;-75
2023/06/15 13:12:38;;;;;;;6.78;1.30;;;30.70;30.90;;;;;;2254136;56;20989;-73
2023/06/15 13:15:07;;;;;;;2.87;1.50;;;30.70;31.00;;;;;;2455089;55;21008;-73
2023/06/15 13:17:36;;;;;;;3.65;1.80;;;30.80;30.40;;;;;;2251119;55;21390;-75
2023/06/15 13:20:04;;;;;;;3.08;1.67;;;30.80;30.40;;;;;;2210914;57;21060;-74
2023/06/15 13:22:31;;;;;;;2.80;1.50;;;30.90;30.10;;;;;;2235495;56;21009;-74
2023/06/15 13:24:57;;;;;;;2.92;1.55;;;30.90;30.00;;;;;;2246012;55;1318419;-74
2023/06/15 13:27:24;;;;;;;2.58;1.60;;;31.00;29.90;;;;;;2252441;55;20993;-75
2023/06/15 13:29:50;;;;;;;3.12;1.60;;;31.00;29.70;;;;;;2251438;55;21417;-73
2023/06/15 13:32:17;;;;;;;2.70;1.50;;;31.00;29.60;;;;;;2479595;54;21714;-75
2023/06/15 13:34:43;;;;;;;2.80;1.62;;;31.00;29.60;;;;;;2249236;55;21041;-74
2023/06/15 13:37:15;;;;;;;4.35;2.10;;;31.10;29.50;;;;;;2245537;55;20942;-70
2023/06/15 13:39:42;;;;;;;3.72;1.80;;;31.10;29.20;;;;;;2213486;56;20952;-74
2023/06/15 13:42:08;;;;;;;3.95;1.87;;;31.10;29.10;;;;;;2432543;55;20991;-72
2023/06/15 13:44:35;;;;;;;3.72;1.73;;;31.10;29.00;;;;;;2432314;55;21329;-70